sensor_id;sensor_type;location;lat;lon;timestamp;P1;durP1;ratioP1;P2;durP2;ratioP2
70838;SDS011;58464;52.298;4.852;2023-11-21T00:00:03;18.55;;;6.35;;
70838;SDS011;58464;52.298;4.852;2023-11-21T00:02:35;16.92;;;6.30;;
70838;SDS011;58464;52.298;4.852;2023-11-21T00:05:00;14.00;;;5.77;;
70838;SDS011;58464;52.298;4.852;2023-11-21T00:07:25;11.77;;;5.37;;
70838;SDS011;58464;52.298;4.852;2023-11-21T00:09:50;14.33;;;5.50;;
70838;SDS011;58464;52.298;4.852;2023-11-21T00:12:16;17.13;;;5.72;;
70838;SDS011;58464;52.298;4.852;2023-11-21T00:14:41;15.50;;;5.33;;
70838;SDS011;58464;52.298;4.852;2023-11-21T00:17:07;15.93;;;5.70;;
70838;SDS011;58464;52.298;4.852;2023-11-21T00:19:32;10.38;;;5.45;;
70838;SDS011;58464;52.298;4.852;2023-11-21T00:21:58;12.93;;;4.80;;
70838;SDS011;58464;52.298;4.852;2023-11-21T00:24:24;23.52;;;5.53;;
70838;SDS011;58464;52.298;4.852;2023-11-21T00:26:50;11.10;;;5.30;;
70838;SDS011;58464;52.298;4.852;2023-11-21T00:29:15;12.02;;;4.38;;
70838;SDS011;58464;52.298;4.852;2023-11-21T00:31:42;13.27;;;5.53;;
70838;SDS011;58464;52.298;4.852;2023-11-21T00:34:07;21.10;;;6.60;;
70838;SDS011;58464;52.298;4.852;2023-11-21T00:36:34;16.83;;;5.93;;
70838;SDS011;58464;52.298;4.852;2023-11-21T00:38:59;16.10;;;5.65;;
70838;SDS011;58464;52.298;4.852;2023-11-21T00:41:24;13.37;;;5.63;;
70838;SDS011;58464;52.298;4.852;2023-11-21T00:43:53;17.85;;;4.70;;
70838;SDS011;58464;52.298;4.852;2023-11-21T00:46:19;19.42;;;4.53;;
70838;SDS011;58464;52.298;4.852;2023-11-21T00:48:44;17.42;;;5.70;;
70838;SDS011;58464;52.298;4.852;2023-11-21T00:51:09;19.05;;;5.95;;
70838;SDS011;58464;52.298;4.852;2023-11-21T00:53:35;16.10;;;6.43;;
70838;SDS011;58464;52.298;4.852;2023-11-21T00:56:00;23.52;;;5.43;;
70838;SDS011;58464;52.298;4.852;2023-11-21T00:58:25;14.98;;;6.47;;
70838;SDS011;58464;52.298;4.852;2023-11-21T01:00:51;19.92;;;6.22;;
70838;SDS011;58464;52.298;4.852;2023-11-21T01:03:16;15.17;;;5.27;;
70838;SDS011;58464;52.298;4.852;2023-11-21T01:05:41;13.67;;;4.97;;
70838;SDS011;58464;52.298;4.852;2023-11-21T01:08:07;18.88;;;6.57;;
70838;SDS011;58464;52.298;4.852;2023-11-21T01:10:32;11.25;;;4.82;;
70838;SDS011;58464;52.298;4.852;2023-11-21T01:12:59;21.23;;;6.32;;
70838;SDS011;58464;52.298;4.852;2023-11-21T01:15:24;20.58;;;6.07;;
70838;SDS011;58464;52.298;4.852;2023-11-21T01:17:50;19.83;;;6.38;;
70838;SDS011;58464;52.298;4.852;2023-11-21T01:20:16;19.83;;;6.15;;
70838;SDS011;58464;52.298;4.852;2023-11-21T01:22:42;16.83;;;5.60;;
70838;SDS011;58464;52.298;4.852;2023-11-21T01:25:08;17.27;;;6.50;;
70838;SDS011;58464;52.298;4.852;2023-11-21T01:27:33;21.60;;;6.68;;
70838;SDS011;58464;52.298;4.852;2023-11-21T01:29:59;21.77;;;7.30;;
70838;SDS011;58464;52.298;4.852;2023-11-21T01:32:24;20.90;;;6.13;;
70838;SDS011;58464;52.298;4.852;2023-11-21T01:34:50;21.07;;;5.90;;
70838;SDS011;58464;52.298;4.852;2023-11-21T01:37:15;20.58;;;6.90;;
70838;SDS011;58464;52.298;4.852;2023-11-21T01:39:42;16.98;;;5.95;;
70838;SDS011;58464;52.298;4.852;2023-11-21T01:42:07;22.70;;;7.05;;
70838;SDS011;58464;52.298;4.852;2023-11-21T01:44:32;21.33;;;6.77;;
70838;SDS011;58464;52.298;4.852;2023-11-21T01:46:58;21.27;;;6.80;;
70838;SDS011;58464;52.298;4.852;2023-11-21T01:49:23;17.88;;;6.70;;
70838;SDS011;58464;52.298;4.852;2023-11-21T01:51:49;23.57;;;7.37;;
70838;SDS011;58464;52.298;4.852;2023-11-21T01:54:17;22.25;;;5.88;;
70838;SDS011;58464;52.298;4.852;2023-11-21T01:56:47;25.73;;;7.40;;
70838;SDS011;58464;52.298;4.852;2023-11-21T01:59:17;18.35;;;6.25;;
70838;SDS011;58464;52.298;4.852;2023-11-21T02:01:43;17.42;;;5.85;;
70838;SDS011;58464;52.298;4.852;2023-11-21T02:04:09;16.92;;;5.63;;
70838;SDS011;58464;52.298;4.852;2023-11-21T02:06:34;20.25;;;7.00;;
70838;SDS011;58464;52.298;4.852;2023-11-21T02:09:00;20.80;;;6.57;;
70838;SDS011;58464;52.298;4.852;2023-11-21T02:11:26;21.23;;;6.30;;
70838;SDS011;58464;52.298;4.852;2023-11-21T02:13:52;21.38;;;6.35;;
70838;SDS011;58464;52.298;4.852;2023-11-21T02:16:19;18.45;;;7.40;;
70838;SDS011;58464;52.298;4.852;2023-11-21T02:18:45;20.25;;;6.13;;
70838;SDS011;58464;52.298;4.852;2023-11-21T02:21:12;23.55;;;6.32;;
70838;SDS011;58464;52.298;4.852;2023-11-21T02:23:37;17.90;;;5.93;;
70838;SDS011;58464;52.298;4.852;2023-11-21T02:26:07;15.52;;;4.85;;
70838;SDS011;58464;52.298;4.852;2023-11-21T02:28:32;20.17;;;5.15;;
70838;SDS011;58464;52.298;4.852;2023-11-21T02:30:58;22.48;;;5.70;;
70838;SDS011;58464;52.298;4.852;2023-11-21T02:33:24;13.18;;;5.20;;
70838;SDS011;58464;52.298;4.852;2023-11-21T02:35:49;17.88;;;6.78;;
70838;SDS011;58464;52.298;4.852;2023-11-21T02:38:16;21.27;;;6.65;;
70838;SDS011;58464;52.298;4.852;2023-11-21T02:40:42;23.48;;;5.85;;
70838;SDS011;58464;52.298;4.852;2023-11-21T02:43:07;14.82;;;4.82;;
70838;SDS011;58464;52.298;4.852;2023-11-21T02:45:33;16.17;;;5.05;;
70838;SDS011;58464;52.298;4.852;2023-11-21T02:47:58;21.53;;;5.23;;
70838;SDS011;58464;52.298;4.852;2023-11-21T02:50:24;19.90;;;5.30;;
70838;SDS011;58464;52.298;4.852;2023-11-21T02:52:49;13.37;;;3.73;;
70838;SDS011;58464;52.298;4.852;2023-11-21T02:55:15;16.60;;;5.65;;
70838;SDS011;58464;52.298;4.852;2023-11-21T02:57:40;16.23;;;5.13;;
70838;SDS011;58464;52.298;4.852;2023-11-21T03:00:05;16.90;;;5.33;;
70838;SDS011;58464;52.298;4.852;2023-11-21T03:02:32;25.45;;;6.40;;
70838;SDS011;58464;52.298;4.852;2023-11-21T03:04:58;13.50;;;5.53;;
70838;SDS011;58464;52.298;4.852;2023-11-21T03:07:23;20.53;;;5.80;;
70838;SDS011;58464;52.298;4.852;2023-11-21T03:09:48;18.65;;;5.38;;
70838;SDS011;58464;52.298;4.852;2023-11-21T03:12:13;17.20;;;5.83;;
70838;SDS011;58464;52.298;4.852;2023-11-21T03:14:39;18.05;;;6.28;;
70838;SDS011;58464;52.298;4.852;2023-11-21T03:17:04;17.25;;;5.88;;
70838;SDS011;58464;52.298;4.852;2023-11-21T03:19:30;13.77;;;6.35;;
70838;SDS011;58464;52.298;4.852;2023-11-21T03:21:55;27.25;;;6.25;;
70838;SDS011;58464;52.298;4.852;2023-11-21T03:24:21;19.33;;;5.20;;
70838;SDS011;58464;52.298;4.852;2023-11-21T03:26:47;15.32;;;5.22;;
70838;SDS011;58464;52.298;4.852;2023-11-21T03:29:12;7.35;;;3.78;;
70838;SDS011;58464;52.298;4.852;2023-11-21T03:31:38;13.32;;;4.60;;
70838;SDS011;58464;52.298;4.852;2023-11-21T03:34:03;15.85;;;5.05;;
70838;SDS011;58464;52.298;4.852;2023-11-21T03:36:29;9.18;;;4.10;;
70838;SDS011;58464;52.298;4.852;2023-11-21T03:38:54;11.27;;;3.90;;
70838;SDS011;58464;52.298;4.852;2023-11-21T03:41:20;6.20;;;3.70;;
70838;SDS011;58464;52.298;4.852;2023-11-21T03:43:45;8.13;;;3.55;;
70838;SDS011;58464;52.298;4.852;2023-11-21T03:46:11;6.80;;;3.67;;
70838;SDS011;58464;52.298;4.852;2023-11-21T03:48:37;7.25;;;3.97;;
70838;SDS011;58464;52.298;4.852;2023-11-21T03:51:02;9.15;;;4.20;;
70838;SDS011;58464;52.298;4.852;2023-11-21T03:53:28;12.82;;;5.05;;
70838;SDS011;58464;52.298;4.852;2023-11-21T03:55:53;11.52;;;4.95;;
70838;SDS011;58464;52.298;4.852;2023-11-21T03:58:19;16.70;;;6.40;;
70838;SDS011;58464;52.298;4.852;2023-11-21T04:00:44;9.70;;;5.47;;
70838;SDS011;58464;52.298;4.852;2023-11-21T04:03:09;15.20;;;5.75;;
70838;SDS011;58464;52.298;4.852;2023-11-21T04:05:34;19.30;;;6.15;;
70838;SDS011;58464;52.298;4.852;2023-11-21T04:08:00;15.45;;;5.20;;
70838;SDS011;58464;52.298;4.852;2023-11-21T04:10:25;12.05;;;5.88;;
70838;SDS011;58464;52.298;4.852;2023-11-21T04:12:50;15.03;;;6.47;;
70838;SDS011;58464;52.298;4.852;2023-11-21T04:15:16;13.50;;;5.70;;
70838;SDS011;58464;52.298;4.852;2023-11-21T04:17:42;11.73;;;5.70;;
70838;SDS011;58464;52.298;4.852;2023-11-21T04:20:07;10.75;;;5.15;;
70838;SDS011;58464;52.298;4.852;2023-11-21T04:22:38;14.63;;;6.03;;
70838;SDS011;58464;52.298;4.852;2023-11-21T04:25:08;12.57;;;5.90;;
70838;SDS011;58464;52.298;4.852;2023-11-21T04:27:33;12.38;;;6.10;;
70838;SDS011;58464;52.298;4.852;2023-11-21T04:29:59;19.63;;;5.60;;
70838;SDS011;58464;52.298;4.852;2023-11-21T04:32:24;14.45;;;6.65;;
70838;SDS011;58464;52.298;4.852;2023-11-21T04:34:50;12.63;;;5.53;;
70838;SDS011;58464;52.298;4.852;2023-11-21T04:37:15;15.50;;;5.75;;
70838;SDS011;58464;52.298;4.852;2023-11-21T04:39:40;12.13;;;5.90;;
70838;SDS011;58464;52.298;4.852;2023-11-21T04:42:05;13.60;;;6.10;;
70838;SDS011;58464;52.298;4.852;2023-11-21T04:44:31;16.92;;;6.60;;
70838;SDS011;58464;52.298;4.852;2023-11-21T04:46:56;12.23;;;6.03;;
70838;SDS011;58464;52.298;4.852;2023-11-21T04:49:21;10.10;;;6.22;;
70838;SDS011;58464;52.298;4.852;2023-11-21T04:51:46;9.50;;;5.40;;
70838;SDS011;58464;52.298;4.852;2023-11-21T04:54:11;11.33;;;5.17;;
70838;SDS011;58464;52.298;4.852;2023-11-21T04:56:37;9.65;;;5.28;;
70838;SDS011;58464;52.298;4.852;2023-11-21T04:59:02;9.70;;;4.70;;
70838;SDS011;58464;52.298;4.852;2023-11-21T05:01:27;5.90;;;3.22;;
70838;SDS011;58464;52.298;4.852;2023-11-21T05:03:52;8.33;;;4.47;;
70838;SDS011;58464;52.298;4.852;2023-11-21T05:06:19;9.60;;;4.73;;
70838;SDS011;58464;52.298;4.852;2023-11-21T05:08:44;6.10;;;3.78;;
70838;SDS011;58464;52.298;4.852;2023-11-21T05:11:10;11.67;;;3.97;;
70838;SDS011;58464;52.298;4.852;2023-11-21T05:13:38;5.07;;;2.42;;
70838;SDS011;58464;52.298;4.852;2023-11-21T05:16:04;11.45;;;3.47;;
70838;SDS011;58464;52.298;4.852;2023-11-21T05:18:31;9.63;;;3.83;;
70838;SDS011;58464;52.298;4.852;2023-11-21T05:20:57;6.20;;;3.03;;
70838;SDS011;58464;52.298;4.852;2023-11-21T05:23:22;7.20;;;2.42;;
70838;SDS011;58464;52.298;4.852;2023-11-21T05:25:48;8.60;;;3.07;;
70838;SDS011;58464;52.298;4.852;2023-11-21T05:28:13;15.50;;;4.47;;
70838;SDS011;58464;52.298;4.852;2023-11-21T05:30:38;8.10;;;3.87;;
70838;SDS011;58464;52.298;4.852;2023-11-21T05:33:04;13.38;;;3.78;;
70838;SDS011;58464;52.298;4.852;2023-11-21T05:35:29;8.38;;;3.17;;
70838;SDS011;58464;52.298;4.852;2023-11-21T05:37:55;14.43;;;4.03;;
70838;SDS011;58464;52.298;4.852;2023-11-21T05:40:20;3.77;;;1.70;;
70838;SDS011;58464;52.298;4.852;2023-11-21T05:42:47;8.68;;;3.35;;
70838;SDS011;58464;52.298;4.852;2023-11-21T05:45:13;9.20;;;3.53;;
70838;SDS011;58464;52.298;4.852;2023-11-21T05:47:41;5.25;;;2.17;;
70838;SDS011;58464;52.298;4.852;2023-11-21T05:50:08;5.47;;;2.25;;
70838;SDS011;58464;52.298;4.852;2023-11-21T05:52:36;4.68;;;2.35;;
70838;SDS011;58464;52.298;4.852;2023-11-21T05:55:01;7.20;;;2.42;;
70838;SDS011;58464;52.298;4.852;2023-11-21T05:57:27;4.93;;;2.47;;
70838;SDS011;58464;52.298;4.852;2023-11-21T05:59:52;4.80;;;1.63;;
70838;SDS011;58464;52.298;4.852;2023-11-21T06:02:17;7.20;;;2.20;;
70838;SDS011;58464;52.298;4.852;2023-11-21T06:04:43;7.38;;;2.67;;
70838;SDS011;58464;52.298;4.852;2023-11-21T06:07:08;3.77;;;2.80;;
70838;SDS011;58464;52.298;4.852;2023-11-21T06:09:36;4.90;;;2.25;;
70838;SDS011;58464;52.298;4.852;2023-11-21T06:12:02;9.05;;;1.80;;
70838;SDS011;58464;52.298;4.852;2023-11-21T06:14:29;5.78;;;2.03;;
70838;SDS011;58464;52.298;4.852;2023-11-21T06:16:54;4.07;;;1.97;;
70838;SDS011;58464;52.298;4.852;2023-11-21T06:19:21;4.43;;;2.13;;
70838;SDS011;58464;52.298;4.852;2023-11-21T06:21:46;4.22;;;1.27;;
70838;SDS011;58464;52.298;4.852;2023-11-21T06:24:12;5.97;;;2.55;;
70838;SDS011;58464;52.298;4.852;2023-11-21T06:26:37;5.05;;;2.75;;
70838;SDS011;58464;52.298;4.852;2023-11-21T06:29:03;8.30;;;3.25;;
70838;SDS011;58464;52.298;4.852;2023-11-21T06:31:29;11.57;;;2.65;;
70838;SDS011;58464;52.298;4.852;2023-11-21T06:33:54;5.65;;;2.67;;
70838;SDS011;58464;52.298;4.852;2023-11-21T06:36:19;11.30;;;2.67;;
70838;SDS011;58464;52.298;4.852;2023-11-21T06:38:45;11.30;;;3.38;;
70838;SDS011;58464;52.298;4.852;2023-11-21T06:41:11;4.63;;;2.97;;
70838;SDS011;58464;52.298;4.852;2023-11-21T06:43:36;8.15;;;2.50;;
70838;SDS011;58464;52.298;4.852;2023-11-21T06:46:01;7.53;;;3.03;;
70838;SDS011;58464;52.298;4.852;2023-11-21T06:48:27;6.00;;;3.00;;
70838;SDS011;58464;52.298;4.852;2023-11-21T06:50:52;9.73;;;3.28;;
70838;SDS011;58464;52.298;4.852;2023-11-21T06:53:17;8.02;;;2.75;;
70838;SDS011;58464;52.298;4.852;2023-11-21T06:55:42;8.37;;;3.53;;
70838;SDS011;58464;52.298;4.852;2023-11-21T06:58:08;7.00;;;3.03;;
70838;SDS011;58464;52.298;4.852;2023-11-21T07:00:34;7.70;;;3.03;;
70838;SDS011;58464;52.298;4.852;2023-11-21T07:03:00;9.10;;;2.40;;
70838;SDS011;58464;52.298;4.852;2023-11-21T07:05:25;10.23;;;2.97;;
70838;SDS011;58464;52.298;4.852;2023-11-21T07:07:51;6.85;;;2.88;;
70838;SDS011;58464;52.298;4.852;2023-11-21T07:10:19;9.82;;;3.05;;
70838;SDS011;58464;52.298;4.852;2023-11-21T07:12:44;14.00;;;3.92;;
70838;SDS011;58464;52.298;4.852;2023-11-21T07:15:09;8.43;;;3.43;;
70838;SDS011;58464;52.298;4.852;2023-11-21T07:17:35;4.38;;;3.38;;
70838;SDS011;58464;52.298;4.852;2023-11-21T07:20:02;9.63;;;4.30;;
70838;SDS011;58464;52.298;4.852;2023-11-21T07:22:28;10.13;;;3.67;;
70838;SDS011;58464;52.298;4.852;2023-11-21T07:24:53;8.50;;;3.33;;
70838;SDS011;58464;52.298;4.852;2023-11-21T07:27:18;11.93;;;5.57;;
70838;SDS011;58464;52.298;4.852;2023-11-21T07:29:44;14.63;;;5.28;;
70838;SDS011;58464;52.298;4.852;2023-11-21T07:32:09;9.82;;;4.43;;
70838;SDS011;58464;52.298;4.852;2023-11-21T07:34:35;10.98;;;4.38;;
70838;SDS011;58464;52.298;4.852;2023-11-21T07:37:00;16.45;;;4.43;;
70838;SDS011;58464;52.298;4.852;2023-11-21T07:39:26;11.38;;;4.75;;
70838;SDS011;58464;52.298;4.852;2023-11-21T07:41:51;12.00;;;7.05;;
70838;SDS011;58464;52.298;4.852;2023-11-21T07:44:17;5.83;;;3.00;;
70838;SDS011;58464;52.298;4.852;2023-11-21T07:46:42;8.40;;;3.88;;
70838;SDS011;58464;52.298;4.852;2023-11-21T07:49:08;12.13;;;3.72;;
70838;SDS011;58464;52.298;4.852;2023-11-21T07:51:34;9.77;;;3.55;;
70838;SDS011;58464;52.298;4.852;2023-11-21T07:53:59;6.47;;;3.57;;
70838;SDS011;58464;52.298;4.852;2023-11-21T07:56:24;14.37;;;4.47;;
70838;SDS011;58464;52.298;4.852;2023-11-21T07:58:49;9.33;;;3.60;;
70838;SDS011;58464;52.298;4.852;2023-11-21T08:01:15;6.72;;;3.97;;
70838;SDS011;58464;52.298;4.852;2023-11-21T08:03:40;8.67;;;4.40;;
70838;SDS011;58464;52.298;4.852;2023-11-21T08:06:05;14.80;;;5.17;;
70838;SDS011;58464;52.298;4.852;2023-11-21T08:08:31;6.82;;;4.10;;
70838;SDS011;58464;52.298;4.852;2023-11-21T08:10:57;8.70;;;3.60;;
70838;SDS011;58464;52.298;4.852;2023-11-21T08:13:25;12.77;;;5.13;;
70838;SDS011;58464;52.298;4.852;2023-11-21T08:15:53;5.78;;;3.42;;
70838;SDS011;58464;52.298;4.852;2023-11-21T08:18:19;15.82;;;3.50;;
70838;SDS011;58464;52.298;4.852;2023-11-21T08:20:44;6.43;;;4.13;;
70838;SDS011;58464;52.298;4.852;2023-11-21T08:23:12;11.48;;;4.32;;
70838;SDS011;58464;52.298;4.852;2023-11-21T08:25:37;12.77;;;5.07;;
70838;SDS011;58464;52.298;4.852;2023-11-21T08:28:03;13.43;;;4.90;;
70838;SDS011;58464;52.298;4.852;2023-11-21T08:30:30;10.02;;;5.38;;
70838;SDS011;58464;52.298;4.852;2023-11-21T08:32:55;10.47;;;2.83;;
70838;SDS011;58464;52.298;4.852;2023-11-21T08:35:23;6.38;;;2.67;;
70838;SDS011;58464;52.298;4.852;2023-11-21T08:37:48;7.72;;;3.80;;
70838;SDS011;58464;52.298;4.852;2023-11-21T08:40:15;7.28;;;3.63;;
70838;SDS011;58464;52.298;4.852;2023-11-21T08:42:42;7.95;;;3.67;;
70838;SDS011;58464;52.298;4.852;2023-11-21T08:45:07;6.63;;;3.80;;
70838;SDS011;58464;52.298;4.852;2023-11-21T08:47:33;10.27;;;5.15;;
70838;SDS011;58464;52.298;4.852;2023-11-21T08:49:59;9.30;;;3.03;;
70838;SDS011;58464;52.298;4.852;2023-11-21T08:52:24;12.80;;;3.50;;
70838;SDS011;58464;52.298;4.852;2023-11-21T08:54:49;10.07;;;5.53;;
70838;SDS011;58464;52.298;4.852;2023-11-21T08:57:21;8.60;;;4.40;;
70838;SDS011;58464;52.298;4.852;2023-11-21T08:59:46;9.43;;;4.88;;
70838;SDS011;58464;52.298;4.852;2023-11-21T09:02:12;9.47;;;6.07;;
70838;SDS011;58464;52.298;4.852;2023-11-21T09:04:37;10.63;;;5.18;;
70838;SDS011;58464;52.298;4.852;2023-11-21T09:07:03;12.80;;;5.65;;
70838;SDS011;58464;52.298;4.852;2023-11-21T09:09:28;10.75;;;6.35;;
70838;SDS011;58464;52.298;4.852;2023-11-21T09:11:54;10.90;;;6.88;;
70838;SDS011;58464;52.298;4.852;2023-11-21T09:14:21;11.02;;;7.07;;
70838;SDS011;58464;52.298;4.852;2023-11-21T09:16:46;17.23;;;8.57;;
70838;SDS011;58464;52.298;4.852;2023-11-21T09:19:12;12.02;;;5.57;;
70838;SDS011;58464;52.298;4.852;2023-11-21T09:21:39;9.57;;;6.32;;
70838;SDS011;58464;52.298;4.852;2023-11-21T09:24:04;14.05;;;6.35;;
70838;SDS011;58464;52.298;4.852;2023-11-21T09:26:29;13.45;;;8.05;;
70838;SDS011;58464;52.298;4.852;2023-11-21T09:28:56;11.35;;;6.82;;
70838;SDS011;58464;52.298;4.852;2023-11-21T09:31:22;8.88;;;5.22;;
70838;SDS011;58464;52.298;4.852;2023-11-21T09:33:47;13.52;;;7.07;;
70838;SDS011;58464;52.298;4.852;2023-11-21T09:36:16;15.10;;;7.95;;
70838;SDS011;58464;52.298;4.852;2023-11-21T09:38:46;7.78;;;4.95;;
70838;SDS011;58464;52.298;4.852;2023-11-21T09:44:00;10.82;;;7.15;;
70838;SDS011;58464;52.298;4.852;2023-11-21T09:46:28;9.75;;;5.97;;
70838;SDS011;58464;52.298;4.852;2023-11-21T09:48:55;16.08;;;8.35;;
70838;SDS011;58464;52.298;4.852;2023-11-21T09:51:23;8.77;;;4.47;;
70838;SDS011;58464;52.298;4.852;2023-11-21T09:53:54;9.90;;;5.63;;
70838;SDS011;58464;52.298;4.852;2023-11-21T09:56:20;9.18;;;3.92;;
70838;SDS011;58464;52.298;4.852;2023-11-21T09:58:50;11.70;;;5.50;;
70838;SDS011;58464;52.298;4.852;2023-11-21T10:01:16;7.88;;;3.97;;
70838;SDS011;58464;52.298;4.852;2023-11-21T10:03:42;7.53;;;5.65;;
70838;SDS011;58464;52.298;4.852;2023-11-21T10:06:08;10.20;;;5.55;;
70838;SDS011;58464;52.298;4.852;2023-11-21T10:08:34;9.07;;;4.57;;
70838;SDS011;58464;52.298;4.852;2023-11-21T10:11:01;9.80;;;5.38;;
70838;SDS011;58464;52.298;4.852;2023-11-21T10:13:27;10.00;;;5.97;;
70838;SDS011;58464;52.298;4.852;2023-11-21T10:15:58;11.73;;;6.75;;
70838;SDS011;58464;52.298;4.852;2023-11-21T10:18:24;11.13;;;5.72;;
70838;SDS011;58464;52.298;4.852;2023-11-21T10:20:51;17.35;;;5.72;;
70838;SDS011;58464;52.298;4.852;2023-11-21T10:23:21;10.27;;;5.88;;
70838;SDS011;58464;52.298;4.852;2023-11-21T10:25:47;14.25;;;7.97;;
70838;SDS011;58464;52.298;4.852;2023-11-21T10:28:12;13.98;;;6.63;;
70838;SDS011;58464;52.298;4.852;2023-11-21T10:30:38;18.55;;;8.43;;
70838;SDS011;58464;52.298;4.852;2023-11-21T10:33:04;12.13;;;6.78;;
70838;SDS011;58464;52.298;4.852;2023-11-21T10:35:39;9.63;;;5.75;;
70838;SDS011;58464;52.298;4.852;2023-11-21T10:38:05;15.25;;;7.70;;
70838;SDS011;58464;52.298;4.852;2023-11-21T10:40:30;12.73;;;7.38;;
70838;SDS011;58464;52.298;4.852;2023-11-21T10:43:05;9.88;;;5.22;;
70838;SDS011;58464;52.298;4.852;2023-11-21T10:45:31;10.13;;;5.55;;
70838;SDS011;58464;52.298;4.852;2023-11-21T10:47:57;12.93;;;6.22;;
70838;SDS011;58464;52.298;4.852;2023-11-21T10:50:23;11.20;;;7.00;;
70838;SDS011;58464;52.298;4.852;2023-11-21T10:52:48;12.20;;;6.57;;
70838;SDS011;58464;52.298;4.852;2023-11-21T10:55:17;14.73;;;6.22;;
70838;SDS011;58464;52.298;4.852;2023-11-21T10:57:48;11.50;;;6.00;;
70838;SDS011;58464;52.298;4.852;2023-11-21T11:00:16;12.50;;;6.75;;
70838;SDS011;58464;52.298;4.852;2023-11-21T11:02:49;11.32;;;7.22;;
70838;SDS011;58464;52.298;4.852;2023-11-21T11:05:17;8.80;;;4.70;;
70838;SDS011;58464;52.298;4.852;2023-11-21T11:07:44;7.65;;;4.32;;
70838;SDS011;58464;52.298;4.852;2023-11-21T11:10:16;15.65;;;7.68;;
70838;SDS011;58464;52.298;4.852;2023-11-21T11:12:42;8.43;;;5.15;;
70838;SDS011;58464;52.298;4.852;2023-11-21T11:15:17;7.72;;;5.00;;
70838;SDS011;58464;52.298;4.852;2023-11-21T11:17:43;11.82;;;5.57;;
70838;SDS011;58464;52.298;4.852;2023-11-21T11:20:13;6.07;;;4.13;;
70838;SDS011;58464;52.298;4.852;2023-11-21T11:33:14;14.57;;;7.10;;
70838;SDS011;58464;52.298;4.852;2023-11-21T11:38:12;8.43;;;4.55;;
70838;SDS011;58464;52.298;4.852;2023-11-21T11:40:39;5.65;;;4.50;;
70838;SDS011;58464;52.298;4.852;2023-11-21T11:43:05;7.07;;;4.10;;
70838;SDS011;58464;52.298;4.852;2023-11-21T11:45:32;7.22;;;5.05;;
70838;SDS011;58464;52.298;4.852;2023-11-21T11:47:59;9.38;;;6.13;;
70838;SDS011;58464;52.298;4.852;2023-11-21T11:50:24;8.95;;;5.40;;
70838;SDS011;58464;52.298;4.852;2023-11-21T11:52:52;8.65;;;5.03;;
70838;SDS011;58464;52.298;4.852;2023-11-21T11:55:23;5.07;;;3.40;;
70838;SDS011;58464;52.298;4.852;2023-11-21T11:57:53;10.35;;;4.68;;
70838;SDS011;58464;52.298;4.852;2023-11-21T12:00:22;9.40;;;5.82;;
70838;SDS011;58464;52.298;4.852;2023-11-21T12:02:51;10.32;;;6.32;;
70838;SDS011;58464;52.298;4.852;2023-11-21T12:05:17;9.38;;;5.03;;
70838;SDS011;58464;52.298;4.852;2023-11-21T12:07:52;9.65;;;5.47;;
70838;SDS011;58464;52.298;4.852;2023-11-21T12:10:19;7.85;;;3.85;;
70838;SDS011;58464;52.298;4.852;2023-11-21T12:12:46;8.75;;;4.90;;
70838;SDS011;58464;52.298;4.852;2023-11-21T12:15:11;8.50;;;4.45;;
70838;SDS011;58464;52.298;4.852;2023-11-21T12:17:38;9.55;;;4.50;;
70838;SDS011;58464;52.298;4.852;2023-11-21T12:20:04;6.93;;;3.63;;
70838;SDS011;58464;52.298;4.852;2023-11-21T12:22:30;9.18;;;5.13;;
70838;SDS011;58464;52.298;4.852;2023-11-21T12:24:56;10.50;;;6.15;;
70838;SDS011;58464;52.298;4.852;2023-11-21T12:27:21;12.77;;;5.63;;
70838;SDS011;58464;52.298;4.852;2023-11-21T12:29:46;13.05;;;7.35;;
70838;SDS011;58464;52.298;4.852;2023-11-21T12:32:11;8.80;;;4.83;;
70838;SDS011;58464;52.298;4.852;2023-11-21T12:34:38;14.32;;;8.38;;
70838;SDS011;58464;52.298;4.852;2023-11-21T12:37:04;12.73;;;7.32;;
70838;SDS011;58464;52.298;4.852;2023-11-21T12:39:29;14.07;;;7.57;;
70838;SDS011;58464;52.298;4.852;2023-11-21T12:41:55;9.40;;;5.40;;
70838;SDS011;58464;52.298;4.852;2023-11-21T12:44:20;12.07;;;4.97;;
70838;SDS011;58464;52.298;4.852;2023-11-21T12:46:48;12.60;;;7.03;;
70838;SDS011;58464;52.298;4.852;2023-11-21T12:49:15;12.63;;;7.07;;
70838;SDS011;58464;52.298;4.852;2023-11-21T12:51:44;8.65;;;4.22;;
70838;SDS011;58464;52.298;4.852;2023-11-21T12:54:10;11.52;;;6.72;;
70838;SDS011;58464;52.298;4.852;2023-11-21T12:56:40;9.60;;;6.53;;
70838;SDS011;58464;52.298;4.852;2023-11-21T12:59:08;15.30;;;8.07;;
70838;SDS011;58464;52.298;4.852;2023-11-21T13:01:41;10.70;;;6.60;;
70838;SDS011;58464;52.298;4.852;2023-11-21T13:04:07;18.17;;;9.50;;
70838;SDS011;58464;52.298;4.852;2023-11-21T13:06:32;27.60;;;9.23;;
70838;SDS011;58464;52.298;4.852;2023-11-21T13:09:03;15.52;;;9.52;;
70838;SDS011;58464;52.298;4.852;2023-11-21T13:11:30;11.95;;;7.90;;
70838;SDS011;58464;52.298;4.852;2023-11-21T13:13:59;13.40;;;7.50;;
70838;SDS011;58464;52.298;4.852;2023-11-21T13:16:25;18.33;;;7.00;;
70838;SDS011;58464;52.298;4.852;2023-11-21T13:18:51;14.00;;;8.53;;
70838;SDS011;58464;52.298;4.852;2023-11-21T13:21:16;11.40;;;6.43;;
70838;SDS011;58464;52.298;4.852;2023-11-21T13:23:42;17.65;;;9.15;;
70838;SDS011;58464;52.298;4.852;2023-11-21T13:26:09;8.55;;;5.70;;
70838;SDS011;58464;52.298;4.852;2023-11-21T13:28:35;11.57;;;7.38;;
70838;SDS011;58464;52.298;4.852;2023-11-21T13:31:02;18.45;;;8.90;;
70838;SDS011;58464;52.298;4.852;2023-11-21T13:33:36;13.60;;;7.50;;
70838;SDS011;58464;52.298;4.852;2023-11-21T13:36:03;10.30;;;6.63;;
70838;SDS011;58464;52.298;4.852;2023-11-21T13:38:32;13.88;;;6.53;;
70838;SDS011;58464;52.298;4.852;2023-11-21T13:41:01;8.73;;;5.45;;
70838;SDS011;58464;52.298;4.852;2023-11-21T13:43:26;7.63;;;5.30;;
70838;SDS011;58464;52.298;4.852;2023-11-21T13:45:54;12.32;;;5.43;;
70838;SDS011;58464;52.298;4.852;2023-11-21T13:48:29;9.15;;;5.80;;
70838;SDS011;58464;52.298;4.852;2023-11-21T13:51:02;7.82;;;4.80;;
70838;SDS011;58464;52.298;4.852;2023-11-21T13:53:38;7.22;;;5.20;;
70838;SDS011;58464;52.298;4.852;2023-11-21T13:56:04;7.80;;;4.28;;
70838;SDS011;58464;52.298;4.852;2023-11-21T13:58:30;9.10;;;5.07;;
70838;SDS011;58464;52.298;4.852;2023-11-21T14:01:14;6.35;;;3.13;;
70838;SDS011;58464;52.298;4.852;2023-11-21T14:03:54;6.78;;;3.45;;
70838;SDS011;58464;52.298;4.852;2023-11-21T14:06:26;10.35;;;5.25;;
70838;SDS011;58464;52.298;4.852;2023-11-21T14:08:59;11.30;;;5.70;;
70838;SDS011;58464;52.298;4.852;2023-11-21T14:11:30;9.10;;;3.85;;
70838;SDS011;58464;52.298;4.852;2023-11-21T14:13:55;7.60;;;4.90;;
70838;SDS011;58464;52.298;4.852;2023-11-21T14:16:20;8.60;;;5.03;;
70838;SDS011;58464;52.298;4.852;2023-11-21T14:18:46;9.68;;;5.43;;
70838;SDS011;58464;52.298;4.852;2023-11-21T14:21:23;9.13;;;4.70;;
70838;SDS011;58464;52.298;4.852;2023-11-21T14:23:49;7.05;;;4.88;;
70838;SDS011;58464;52.298;4.852;2023-11-21T14:26:15;5.88;;;3.45;;
70838;SDS011;58464;52.298;4.852;2023-11-21T14:28:42;7.57;;;5.38;;
70838;SDS011;58464;52.298;4.852;2023-11-21T14:31:07;10.02;;;6.03;;
70838;SDS011;58464;52.298;4.852;2023-11-21T14:33:38;7.65;;;4.82;;
70838;SDS011;58464;52.298;4.852;2023-11-21T14:36:03;7.10;;;5.00;;
70838;SDS011;58464;52.298;4.852;2023-11-21T14:38:28;9.73;;;4.53;;
70838;SDS011;58464;52.298;4.852;2023-11-21T14:40:54;8.63;;;5.78;;
70838;SDS011;58464;52.298;4.852;2023-11-21T14:43:20;6.78;;;5.10;;
70838;SDS011;58464;52.298;4.852;2023-11-21T14:45:47;13.75;;;7.15;;
70838;SDS011;58464;52.298;4.852;2023-11-21T14:48:14;9.27;;;6.03;;
70838;SDS011;58464;52.298;4.852;2023-11-21T14:50:53;11.82;;;7.05;;